createdAt,value
2023-01-09T00:00:43.282Z,7.65
2023-01-09T00:03:29.155Z,12.70
2023-01-09T00:06:15.156Z,14.93
2023-01-09T00:09:00.662Z,18.98
2023-01-09T00:11:45.993Z,19.25
2023-01-09T00:14:31.469Z,18.38
2023-01-09T00:17:16.911Z,28.98
2023-01-09T00:20:02.415Z,18.13
2023-01-09T00:22:48.122Z,8.07
2023-01-09T00:25:33.963Z,9.55
2023-01-09T00:28:19.568Z,10.25
2023-01-09T00:31:06.826Z,16.67
2023-01-09T00:34:00.367Z,10.27
2023-01-09T00:36:46.160Z,9.18
2023-01-09T00:39:31.565Z,7.57
2023-01-09T00:42:22.267Z,7.78
2023-01-09T00:45:11.418Z,9.63
2023-01-09T00:48:03.627Z,7.35
2023-01-09T00:50:49.171Z,12.13
2023-01-09T00:53:36.875Z,12.98
2023-01-09T00:56:23.142Z,7.47
2023-01-09T00:59:09.412Z,5.70
2023-01-09T01:01:55.090Z,10.32
2023-01-09T01:04:58.856Z,14.80
2023-01-09T01:07:45.087Z,6.50
2023-01-09T01:10:30.528Z,10.43
2023-01-09T01:13:16.622Z,11.63
2023-01-09T01:16:05.842Z,10.40
2023-01-09T01:18:51.249Z,11.27
2023-01-09T01:21:36.669Z,8.57
2023-01-09T01:24:22.104Z,11.38
2023-01-09T01:27:07.711Z,10.57
2023-01-09T01:29:53.350Z,13.27
2023-01-09T01:32:38.634Z,8.07
2023-01-09T01:35:24.231Z,9.02
2023-01-09T01:38:09.775Z,11.57
2023-01-09T01:40:56.285Z,9.68
2023-01-09T01:43:53.266Z,9.82
2023-01-09T01:46:38.544Z,9.50
2023-01-09T01:49:23.921Z,9.77
2023-01-09T01:52:09.386Z,18.85
2023-01-09T01:54:55.475Z,16.60
2023-01-09T01:57:45.843Z,11.63
2023-01-09T02:00:35.209Z,9.45
2023-01-09T02:03:25.275Z,12.30
2023-01-09T02:06:12.577Z,11.10
2023-01-09T02:08:58.283Z,9.57
2023-01-09T02:11:48.245Z,11.10
2023-01-09T02:14:34.194Z,10.38
2023-01-09T02:17:49.460Z,9.10
2023-01-09T02:20:38.098Z,8.57
2023-01-09T02:23:59.171Z,14.02
2023-01-09T02:27:03.164Z,13.70
2023-01-09T02:30:10.605Z,9.63
2023-01-09T02:33:14.883Z,8.82
2023-01-09T02:36:10.802Z,10.35
2023-01-09T02:39:17.708Z,10.00
2023-01-09T02:42:10.905Z,11.27
2023-01-09T02:44:56.557Z,11.52
2023-01-09T02:47:44.921Z,10.57
2023-01-09T02:50:42.833Z,12.55
2023-01-09T02:53:48.630Z,12.35
2023-01-09T02:56:58.000Z,13.23
2023-01-09T03:00:02.049Z,13.77
2023-01-09T03:02:47.256Z,10.80
2023-01-09T03:05:47.993Z,14.18
2023-01-09T03:08:48.577Z,4.97
2023-01-09T03:11:42.459Z,9.50
2023-01-09T03:14:32.759Z,7.72
2023-01-09T03:17:29.938Z,15.00
2023-01-09T03:20:21.182Z,8.13
2023-01-09T03:23:07.980Z,6.53
2023-01-09T03:25:53.532Z,13.45
2023-01-09T03:28:39.023Z,8.02
2023-01-09T03:31:24.409Z,14.35
2023-01-09T03:34:10.290Z,15.98
2023-01-09T03:36:55.891Z,10.60
2023-01-09T03:39:41.260Z,10.02
2023-01-09T03:42:26.632Z,11.38
2023-01-09T03:45:12.373Z,7.80
2023-01-09T03:47:59.470Z,10.05
2023-01-09T03:50:47.241Z,10.60
2023-01-09T03:56:17.698Z,9.75
2023-01-09T03:59:02.936Z,14.60
2023-01-09T04:01:48.444Z,12.32
2023-01-09T04:04:34.508Z,8.00
2023-01-09T04:07:20.103Z,7.63
2023-01-09T04:10:05.936Z,16.98
2023-01-09T04:12:51.529Z,6.65
2023-01-09T04:15:37.326Z,14.98
2023-01-09T04:18:22.818Z,9.00
2023-01-09T04:21:08.167Z,5.60
2023-01-09T04:23:53.428Z,5.60
2023-01-09T04:26:38.894Z,7.82
2023-01-09T04:29:24.290Z,10.18
2023-01-09T04:32:09.707Z,13.77
2023-01-09T04:34:55.273Z,10.27
2023-01-09T04:37:40.945Z,9.23
2023-01-09T04:40:26.574Z,7.20
2023-01-09T04:43:12.260Z,9.85
2023-01-09T04:45:57.691Z,7.80
2023-01-09T04:48:42.987Z,10.23
2023-01-09T04:51:28.334Z,10.38
2023-01-09T04:54:13.950Z,12.70
2023-01-09T04:56:59.465Z,12.30
2023-01-09T04:59:44.940Z,13.30
2023-01-09T05:02:30.367Z,9.60
2023-01-09T05:05:15.673Z,11.52
2023-01-09T05:08:01.052Z,13.93
2023-01-09T05:10:46.444Z,11.43
2023-01-09T05:13:31.858Z,14.95
2023-01-09T05:16:17.685Z,14.93
2023-01-09T05:19:03.101Z,10.55
2023-01-09T05:21:48.524Z,15.05
2023-01-09T05:24:34.088Z,10.52
2023-01-09T05:27:19.405Z,9.07
2023-01-09T05:30:05.041Z,8.20
2023-01-09T05:32:50.640Z,18.30
2023-01-09T05:35:35.886Z,23.95
2023-01-09T05:38:21.271Z,9.90
2023-01-09T05:41:07.147Z,14.35
2023-01-09T05:43:52.718Z,19.02
2023-01-09T05:46:37.972Z,17.88
2023-01-09T05:49:23.275Z,12.25
2023-01-09T05:52:08.714Z,19.40
2023-01-09T05:54:54.018Z,23.45
2023-01-09T05:57:39.564Z,10.45
2023-01-09T06:00:24.920Z,15.77
2023-01-09T06:03:10.316Z,9.60
2023-01-09T06:05:55.669Z,11.35
2023-01-09T06:08:40.902Z,14.52
2023-01-09T06:11:26.349Z,9.93
2023-01-09T06:14:11.548Z,7.18
2023-01-09T06:16:57.430Z,12.10
2023-01-09T06:19:42.820Z,19.50
2023-01-09T06:22:28.157Z,23.27
2023-01-09T06:25:13.810Z,9.57
2023-01-09T06:27:59.115Z,16.45
2023-01-09T06:30:44.388Z,18.42
2023-01-09T06:33:29.768Z,14.00
2023-01-09T06:36:15.062Z,9.52
2023-01-09T06:39:00.538Z,8.48
2023-01-09T06:41:47.092Z,7.90
2023-01-09T06:44:36.643Z,6.07
2023-01-09T06:47:22.153Z,7.95
2023-01-09T06:50:09.485Z,5.38
2023-01-09T06:52:54.841Z,9.85
2023-01-09T06:55:40.347Z,7.55
2023-01-09T06:58:25.660Z,7.88
2023-01-09T07:01:11.239Z,13.05
2023-01-09T07:03:56.907Z,8.63
2023-01-09T07:06:42.276Z,9.43
2023-01-09T07:09:27.669Z,6.85
2023-01-09T07:12:13.107Z,12.90
2023-01-09T07:14:58.629Z,7.88
2023-01-09T07:17:43.856Z,9.82
2023-01-09T07:20:29.326Z,11.43
2023-01-09T07:23:15.462Z,9.18
2023-01-09T07:26:01.521Z,11.50
2023-01-09T07:28:46.858Z,10.88
2023-01-09T07:31:32.174Z,9.60
2023-01-09T07:34:17.753Z,6.90
2023-01-09T07:37:03.520Z,10.25
2023-01-09T07:39:48.833Z,7.68
2023-01-09T07:42:34.213Z,9.02
2023-01-09T07:45:20.283Z,11.70
2023-01-09T07:48:06.749Z,6.07
2023-01-09T07:50:52.511Z,5.00
2023-01-09T07:53:37.945Z,10.38
2023-01-09T07:56:23.465Z,7.78
2023-01-09T07:59:08.637Z,11.00
2023-01-09T08:01:54.028Z,7.32
2023-01-09T08:04:39.280Z,8.35
2023-01-09T08:07:24.653Z,11.40
2023-01-09T08:10:11.641Z,7.80
2023-01-09T08:12:56.819Z,10.60
2023-01-09T08:15:42.601Z,13.98
2023-01-09T08:18:28.068Z,8.57
2023-01-09T08:21:14.360Z,6.20
2023-01-09T08:23:59.978Z,10.63
2023-01-09T08:26:45.201Z,6.93
2023-01-09T08:29:30.541Z,7.22
2023-01-09T08:32:15.791Z,9.10
2023-01-09T08:35:01.310Z,8.52
2023-01-09T08:37:47.985Z,9.48
2023-01-09T08:40:33.307Z,7.13
2023-01-09T08:43:37.087Z,7.10
2023-01-09T08:46:41.108Z,12.60
2023-01-09T08:49:26.489Z,7.15
2023-01-09T08:52:13.714Z,10.10
2023-01-09T08:54:59.227Z,9.50
2023-01-09T08:57:52.084Z,4.72
2023-01-09T09:00:38.236Z,5.75
2023-01-09T09:03:23.465Z,9.05
2023-01-09T09:06:08.821Z,10.50
2023-01-09T09:08:54.312Z,5.93
2023-01-09T09:11:39.652Z,8.30
2023-01-09T09:14:43.692Z,13.18
2023-01-09T09:17:29.308Z,4.40
2023-01-09T09:20:15.044Z,11.57
2023-01-09T09:23:00.955Z,4.47
2023-01-09T09:25:46.736Z,4.30
2023-01-09T09:28:32.630Z,5.78
2023-01-09T09:31:17.956Z,4.18
2023-01-09T09:34:03.275Z,4.45
2023-01-09T09:36:48.826Z,4.13
2023-01-09T09:39:34.078Z,5.47
2023-01-09T09:42:53.695Z,3.90
2023-01-09T09:45:52.456Z,2.20
2023-01-09T09:49:01.244Z,5.85
2023-01-09T09:52:05.796Z,2.88
2023-01-09T09:54:52.011Z,3.17
2023-01-09T09:57:38.715Z,4.60
2023-01-09T10:00:24.125Z,1.30
2023-01-09T10:03:39.083Z,2.97
2023-01-09T10:06:41.579Z,2.17
2023-01-09T10:09:49.265Z,1.70
2023-01-09T10:12:46.051Z,1.40
2023-01-09T10:15:35.134Z,1.15
2023-01-09T10:18:56.450Z,2.95
2023-01-09T10:22:08.671Z,0.88
2023-01-09T10:25:20.217Z,1.77
2023-01-09T10:28:39.655Z,1.90
2023-01-09T10:31:28.332Z,3.75
2023-01-09T10:34:19.642Z,2.70
2023-01-09T10:37:05.530Z,0.65
2023-01-09T10:39:59.310Z,0.90
2023-01-09T10:42:50.604Z,3.40
2023-01-09T10:45:47.184Z,2.03
2023-01-09T10:48:36.264Z,0.90
2023-01-09T10:51:30.460Z,1.23
2023-01-09T10:54:20.747Z,1.52
2023-01-09T10:57:31.549Z,1.30
2023-01-09T11:00:23.693Z,1.25
2023-01-09T11:03:21.456Z,1.20
2023-01-09T11:06:21.347Z,1.15
2023-01-09T11:09:07.592Z,0.98
2023-01-09T11:11:53.297Z,0.80
2023-01-09T11:14:38.639Z,0.73
2023-01-09T11:17:27.455Z,1.55
2023-01-09T11:20:39.046Z,0.60
2023-01-09T11:23:26.152Z,0.82
2023-01-09T11:26:26.886Z,2.80
2023-01-09T11:29:14.681Z,1.20
2023-01-09T11:32:04.556Z,1.27
2023-01-09T11:34:50.501Z,0.68
2023-01-09T11:37:36.123Z,0.40
2023-01-09T11:40:22.328Z,0.68
2023-01-09T11:43:07.853Z,1.30
2023-01-09T11:46:01.551Z,2.28
2023-01-09T11:48:56.982Z,0.35
2023-01-09T11:51:43.347Z,0.50
2023-01-09T11:54:32.661Z,0.40
2023-01-09T11:57:18.781Z,0.50
2023-01-09T12:00:30.048Z,6.20
2023-01-09T12:03:24.813Z,0.60
2023-01-09T12:06:37.155Z,0.98
2023-01-09T12:09:50.654Z,0.52
2023-01-09T12:12:42.065Z,0.60
2023-01-09T12:15:27.814Z,0.40
2023-01-09T12:18:23.977Z,0.98
2023-01-09T12:21:29.139Z,1.30
2023-01-09T12:24:36.165Z,2.17
2023-01-09T12:32:24.153Z,1.10
2023-01-09T12:35:32.436Z,4.13
2023-01-09T12:38:29.459Z,0.93
2023-01-09T12:41:27.392Z,0.73
2023-01-09T12:44:35.937Z,1.20
2023-01-09T12:47:33.764Z,3.00
2023-01-09T12:50:47.782Z,0.60
2023-01-09T12:53:41.020Z,2.63
2023-01-09T12:56:34.115Z,2.00
2023-01-09T12:59:22.746Z,1.50
2023-01-09T13:02:14.480Z,0.55
2023-01-09T13:05:15.885Z,2.63
2023-01-09T13:08:22.912Z,2.60
2023-01-09T13:11:34.309Z,0.50
2023-01-09T13:14:39.319Z,0.57
2023-01-09T13:17:31.389Z,1.85
2023-01-09T13:20:22.537Z,0.80
2023-01-09T13:23:27.153Z,1.95
2023-01-09T13:26:28.904Z,2.53
2023-01-09T13:29:29.207Z,4.63
2023-01-09T13:32:32.971Z,0.47
2023-01-09T13:35:18.474Z,0.50
2023-01-09T13:38:03.972Z,0.80
2023-01-09T13:41:30.014Z,0.85
2023-01-09T13:44:18.549Z,0.70
2023-01-09T13:47:04.727Z,1.35
2023-01-09T13:49:50.077Z,1.55
2023-01-09T13:52:42.949Z,2.80
2023-01-09T13:55:31.888Z,0.40
2023-01-09T13:58:22.489Z,0.40
2023-01-09T14:01:39.939Z,0.50
2023-01-09T14:04:41.393Z,0.70
2023-01-09T14:07:32.494Z,4.25
2023-01-09T14:10:46.004Z,0.45
2023-01-09T14:13:38.238Z,1.40
2023-01-09T14:16:27.270Z,1.80
2023-01-09T14:19:15.929Z,0.80
2023-01-09T14:22:02.521Z,0.80
2023-01-09T14:24:52.665Z,2.80
2023-01-09T14:28:08.299Z,0.50
2023-01-09T14:30:54.068Z,5.85
2023-01-09T14:33:39.610Z,0.77
2023-01-09T14:36:29.419Z,2.35
2023-01-09T14:39:16.218Z,0.70
2023-01-09T14:42:09.410Z,2.63
2023-01-09T14:45:01.887Z,0.50
2023-01-09T14:47:53.700Z,0.88
2023-01-09T14:50:48.820Z,0.90
2023-01-09T14:53:37.420Z,1.40
2023-01-09T14:56:29.175Z,0.88
2023-01-09T14:59:16.356Z,1.80
2023-01-09T15:02:01.946Z,0.80
2023-01-09T15:04:47.506Z,0.90
2023-01-09T15:07:40.542Z,1.02
2023-01-09T15:10:47.568Z,1.10
2023-01-09T15:13:37.305Z,1.20
2023-01-09T15:16:25.118Z,0.95
2023-01-09T15:19:15.183Z,0.68
2023-01-09T15:22:33.191Z,1.13
2023-01-09T15:25:30.537Z,2.20
2023-01-09T15:28:40.724Z,1.02
2023-01-09T15:31:26.941Z,1.30
2023-01-09T15:34:22.439Z,1.58
2023-01-09T15:37:24.918Z,5.15
2023-01-09T15:40:23.010Z,0.73
2023-01-09T15:43:14.603Z,2.30
2023-01-09T15:46:00.932Z,1.33
2023-01-09T15:48:53.657Z,3.40
2023-01-09T15:51:42.141Z,2.17
2023-01-09T15:54:33.523Z,0.80
2023-01-09T15:57:24.885Z,1.30
2023-01-09T16:00:23.860Z,1.17
2023-01-09T16:03:19.105Z,1.23
2023-01-09T16:06:10.420Z,1.33
2023-01-09T16:08:58.562Z,9.95
2023-01-09T16:11:53.044Z,0.80
2023-01-09T16:14:43.953Z,2.65
2023-01-09T16:17:31.309Z,7.70
2023-01-09T16:20:25.691Z,1.25
2023-01-09T16:23:22.516Z,2.15
2023-01-09T16:26:13.916Z,2.28
2023-01-09T16:29:28.659Z,2.33
2023-01-09T16:32:22.626Z,1.23
2023-01-09T16:35:16.486Z,0.80
2023-01-09T16:38:02.202Z,1.77
2023-01-09T16:41:21.787Z,1.33
2023-01-09T16:46:54.857Z,1.37
2023-01-09T16:49:40.394Z,1.25
2023-01-09T16:52:25.625Z,1.58
2023-01-09T16:55:11.427Z,0.68
2023-01-09T16:57:56.950Z,0.80
2023-01-09T17:00:42.176Z,1.58
2023-01-09T17:03:27.845Z,2.05
2023-01-09T17:06:23.811Z,1.40
2023-01-09T17:09:17.954Z,0.68
2023-01-09T17:12:03.983Z,0.80
2023-01-09T17:14:50.068Z,1.23
2023-01-09T17:17:35.868Z,2.47
2023-01-09T17:20:22.967Z,2.55
2023-01-09T17:23:08.629Z,1.48
2023-01-09T17:26:17.271Z,0.75
2023-01-09T17:31:48.531Z,1.92
2023-01-09T17:34:34.400Z,1.13
2023-01-09T17:37:19.960Z,0.80
2023-01-09T17:40:19.356Z,0.82
2023-01-09T17:43:04.995Z,1.20
2023-01-09T17:45:50.847Z,1.67
2023-01-09T17:48:36.356Z,2.00
2023-01-09T17:51:22.016Z,0.50
2023-01-09T17:54:07.378Z,3.33
2023-01-09T17:56:54.214Z,0.90
2023-01-09T17:59:39.839Z,4.50
2023-01-09T18:02:25.460Z,1.30
2023-01-09T18:05:12.766Z,2.05
2023-01-09T18:07:58.269Z,10.25
2023-01-09T18:10:45.433Z,12.95
2023-01-09T18:16:25.632Z,0.50
2023-01-09T18:19:11.290Z,0.63
2023-01-09T18:21:58.519Z,4.00
2023-01-09T18:24:44.127Z,0.80
2023-01-09T18:27:29.692Z,2.40
2023-01-09T18:30:15.224Z,3.50
2023-01-09T18:33:01.070Z,3.13
2023-01-09T18:35:46.503Z,0.93
2023-01-09T18:38:31.894Z,1.25
2023-01-09T18:41:17.202Z,0.80
2023-01-09T18:44:02.585Z,2.05
2023-01-09T18:46:48.508Z,1.65
2023-01-09T18:49:33.816Z,0.90
2023-01-09T18:52:19.441Z,1.08
2023-01-09T18:55:05.561Z,0.70
2023-01-09T18:57:52.434Z,2.67
2023-01-09T19:00:37.895Z,0.90
2023-01-09T19:03:23.228Z,0.77
2023-01-09T19:06:08.855Z,2.78
2023-01-09T19:08:55.167Z,1.23
2023-01-09T19:11:44.486Z,1.23
2023-01-09T19:14:30.053Z,1.17
2023-01-09T19:17:15.626Z,5.53
2023-01-09T19:20:01.178Z,1.40
2023-01-09T19:22:46.538Z,0.88
2023-01-09T19:25:31.937Z,1.20
2023-01-09T19:28:17.336Z,1.85
2023-01-09T19:31:02.710Z,1.00
2023-01-09T19:33:48.050Z,1.65
2023-01-09T19:36:33.560Z,0.77
2023-01-09T19:39:18.770Z,1.70
2023-01-09T19:42:04.131Z,6.75
2023-01-09T19:44:49.390Z,1.55
2023-01-09T19:47:37.713Z,2.88
2023-01-09T19:50:23.279Z,0.90
2023-01-09T19:53:08.662Z,0.95
2023-01-09T19:55:53.998Z,1.52
2023-01-09T19:58:40.343Z,0.95
2023-01-09T20:01:31.401Z,1.00
2023-01-09T20:04:17.512Z,1.08
2023-01-09T20:07:05.018Z,1.75
2023-01-09T20:09:50.626Z,1.30
2023-01-09T20:12:35.875Z,2.00
2023-01-09T20:15:22.768Z,1.63
2023-01-09T20:18:08.412Z,0.88
2023-01-09T20:20:54.445Z,2.00
2023-01-09T20:23:39.828Z,0.80
2023-01-09T20:26:26.023Z,2.05
2023-01-09T20:29:11.951Z,0.77
2023-01-09T20:31:57.729Z,1.05
2023-01-09T20:34:43.830Z,1.20
2023-01-09T20:37:29.517Z,0.63
2023-01-09T20:40:15.044Z,0.50
2023-01-09T20:43:00.490Z,1.25
2023-01-09T20:45:45.727Z,1.02
2023-01-09T20:48:31.336Z,1.00
2023-01-09T20:51:17.816Z,1.60
2023-01-09T20:54:03.944Z,0.73
2023-01-09T20:56:49.564Z,2.72
2023-01-09T20:59:35.222Z,1.15
2023-01-09T21:02:22.296Z,0.68
2023-01-09T21:05:08.641Z,0.80
2023-01-09T21:07:53.753Z,1.13
2023-01-09T21:10:39.009Z,3.63
2023-01-09T21:13:25.801Z,1.98
2023-01-09T21:16:13.831Z,0.87
2023-01-09T21:18:59.604Z,0.55
2023-01-09T21:21:45.056Z,1.00
2023-01-09T21:24:30.916Z,0.82
2023-01-09T21:27:16.808Z,0.65
2023-01-09T21:30:03.730Z,0.80
2023-01-09T21:32:49.307Z,0.70
2023-01-09T21:35:35.195Z,0.88
2023-01-09T21:38:20.683Z,2.47
2023-01-09T21:41:24.535Z,1.02
2023-01-09T21:44:32.054Z,6.32
2023-01-09T21:47:17.543Z,3.72
2023-01-09T21:50:02.949Z,1.00
2023-01-09T21:52:48.465Z,0.82
2023-01-09T21:55:34.960Z,2.47
2023-01-09T21:58:20.628Z,3.25
2023-01-09T22:01:06.034Z,1.95
2023-01-09T22:03:54.178Z,0.68
2023-01-09T22:06:39.718Z,0.88
2023-01-09T22:09:25.170Z,1.17
2023-01-09T22:12:12.439Z,1.30
2023-01-09T22:14:57.988Z,1.08
2023-01-09T22:17:43.354Z,1.83
2023-01-09T22:20:28.769Z,1.23
2023-01-09T22:23:14.632Z,0.98
2023-01-09T22:26:07.361Z,1.48
2023-01-09T22:28:52.766Z,0.90
2023-01-09T22:31:40.105Z,0.95
2023-01-09T22:34:26.067Z,0.98
2023-01-09T22:37:11.265Z,1.35
2023-01-09T22:39:57.092Z,1.25
2023-01-09T22:42:42.505Z,0.65
2023-01-09T22:45:28.745Z,1.30
2023-01-09T22:48:14.338Z,0.65
2023-01-09T22:51:08.698Z,1.35
2023-01-09T22:53:54.593Z,0.63
2023-01-09T22:56:40.211Z,1.08
2023-01-09T22:59:27.285Z,0.90
2023-01-09T23:02:13.320Z,2.88
2023-01-09T23:04:58.488Z,1.38
2023-01-09T23:07:43.943Z,1.40
2023-01-09T23:10:29.144Z,0.98
2023-01-09T23:13:14.629Z,1.15
2023-01-09T23:16:00.351Z,0.93
2023-01-09T23:18:45.903Z,1.30
2023-01-09T23:21:31.217Z,1.95
2023-01-09T23:24:18.336Z,0.80
2023-01-09T23:27:04.453Z,1.08
2023-01-09T23:29:49.995Z,1.20
2023-01-09T23:32:35.435Z,0.57
2023-01-09T23:35:20.815Z,0.93
2023-01-09T23:38:06.143Z,1.35
2023-01-09T23:40:57.298Z,0.60
2023-01-09T23:43:43.342Z,1.30
2023-01-09T23:46:28.797Z,2.03
2023-01-09T23:49:14.241Z,1.45
2023-01-09T23:52:01.707Z,2.15
2023-01-09T23:54:46.799Z,1.48
2023-01-09T23:57:32.233Z,1.65
